Terminal Aerodrome Forecast
Issued by NWS Binghamton, NY

Home | Current Version | Previous Version | Text Only | Print | Product List | Glossary On
Versions: 1 2 3 4 5 6 7 8 9 10 11 12 13 14 15 16 17 18 19 20
000
FTUS41 KBGM 221126
TAFBGM
TAF
KBGM 221126Z 2212/2312 VRB03KT P6SM SKC
     FM221500 24007KT P6SM SCT120
     FM222100 22009KT P6SM BKN130
     FM230400 18006KT P6SM OVC060=

USA.gov is the U.S. government's official web portal to all federal, state and local government web resources and services.